createdAt,value
2023-04-13T00:01:09.420Z,5.60
2023-04-13T00:03:13.146Z,5.60
2023-04-13T00:05:17.044Z,5.60
2023-04-13T00:07:19.859Z,5.50
2023-04-13T00:09:22.634Z,5.60
2023-04-13T00:11:27.810Z,5.70
2023-04-13T00:13:31.919Z,5.70
2023-04-13T00:15:36.737Z,5.80
2023-04-13T00:17:39.589Z,5.80
2023-04-13T00:19:43.118Z,5.90
2023-04-13T00:21:46.311Z,5.90
2023-04-13T00:23:49.184Z,6.00
2023-04-13T00:25:52.235Z,5.90
2023-04-13T00:27:55.028Z,6.00
2023-04-13T00:29:58.211Z,5.90
2023-04-13T00:32:01.286Z,5.90
2023-04-13T00:34:04.053Z,6.00
2023-04-13T00:36:07.676Z,5.90
2023-04-13T00:38:11.555Z,5.90
2023-04-13T00:40:15.882Z,5.80
2023-04-13T00:42:19.547Z,5.70
2023-04-13T00:44:22.305Z,5.60
2023-04-13T00:46:27.451Z,5.60
2023-04-13T00:48:30.372Z,5.60
2023-04-13T00:50:34.550Z,5.50
2023-04-13T00:52:38.310Z,5.50
2023-04-13T00:54:41.553Z,5.40
2023-04-13T00:56:44.485Z,5.50
2023-04-13T00:58:47.249Z,5.50
2023-04-13T01:00:50.041Z,5.40
2023-04-13T01:02:54.948Z,5.40
2023-04-13T01:04:57.989Z,5.40
2023-04-13T01:07:03.246Z,5.40
2023-04-13T01:09:08.493Z,5.40
2023-04-13T01:11:14.402Z,5.30
2023-04-13T01:13:20.471Z,5.40
2023-04-13T01:15:23.343Z,5.40
2023-04-13T01:17:26.695Z,5.40
2023-04-13T01:19:40.737Z,5.40
2023-04-13T01:21:43.542Z,5.40
2023-04-13T01:23:52.335Z,5.40
2023-04-13T01:25:57.571Z,5.40
2023-04-13T01:28:02.892Z,5.50
2023-04-13T01:30:06.624Z,5.40
2023-04-13T01:32:09.906Z,5.40
2023-04-13T01:34:12.681Z,5.40
2023-04-13T01:36:15.926Z,5.40
2023-04-13T01:38:24.474Z,5.40
2023-04-13T01:40:29.421Z,5.40
2023-04-13T01:42:32.233Z,5.50
2023-04-13T01:44:36.502Z,5.50
2023-04-13T01:46:39.520Z,5.60
2023-04-13T01:48:46.068Z,5.70
2023-04-13T01:50:51.981Z,5.70
2023-04-13T01:52:57.810Z,5.70
2023-04-13T01:55:01.045Z,5.70
2023-04-13T01:57:03.844Z,5.70
2023-04-13T01:59:06.605Z,5.70
2023-04-13T02:01:10.773Z,5.70
2023-04-13T02:03:15.458Z,5.70
2023-04-13T02:05:18.841Z,5.70
2023-04-13T02:07:22.148Z,5.70
2023-04-13T02:09:25.154Z,5.70
2023-04-13T02:11:28.601Z,5.70
2023-04-13T02:13:31.448Z,5.70
2023-04-13T02:15:35.614Z,5.70
2023-04-13T02:17:41.153Z,5.80
2023-04-13T02:19:46.084Z,5.80
2023-04-13T02:21:48.940Z,5.70
2023-04-13T02:23:52.446Z,5.80
2023-04-13T02:25:55.622Z,5.80
2023-04-13T02:27:59.916Z,5.70
2023-04-13T02:30:03.370Z,5.60
2023-04-13T02:32:06.760Z,5.60
2023-04-13T02:34:11.144Z,5.70
2023-04-13T02:36:13.890Z,5.80
2023-04-13T02:38:16.908Z,5.90
2023-04-13T02:40:20.860Z,6.00
2023-04-13T02:42:23.677Z,6.00
2023-04-13T02:44:27.103Z,6.00
2023-04-13T02:46:32.135Z,6.10
2023-04-13T02:48:36.542Z,6.00
2023-04-13T02:50:40.904Z,6.00
2023-04-13T02:52:43.813Z,6.00
2023-04-13T02:54:46.675Z,6.00
2023-04-13T02:56:49.480Z,6.10
2023-04-13T02:58:52.244Z,6.10
2023-04-13T03:00:55.077Z,6.00
2023-04-13T03:02:58.668Z,6.00
2023-04-13T03:05:02.705Z,6.00
2023-04-13T03:07:09.989Z,6.00
2023-04-13T03:09:13.796Z,6.00
2023-04-13T03:11:16.829Z,6.00
2023-04-13T03:13:19.616Z,6.00
2023-04-13T03:15:23.051Z,6.10
2023-04-13T03:17:26.135Z,6.20
2023-04-13T03:19:29.901Z,6.20
2023-04-13T03:21:34.401Z,6.20
2023-04-13T03:23:38.511Z,6.20
2023-04-13T03:25:41.289Z,6.10
2023-04-13T03:27:44.050Z,6.10
2023-04-13T03:29:47.191Z,6.10
2023-04-13T03:31:50.024Z,6.10
2023-04-13T03:33:52.810Z,6.10
2023-04-13T03:35:55.576Z,6.10
2023-04-13T03:37:58.317Z,6.10
2023-04-13T03:40:02.436Z,6.10
2023-04-13T03:42:05.262Z,6.10
2023-04-13T03:44:08.327Z,6.00
2023-04-13T03:46:11.168Z,6.00
2023-04-13T03:48:14.301Z,6.00
2023-04-13T03:50:17.162Z,6.00
2023-04-13T03:52:20.019Z,5.90
2023-04-13T03:54:22.788Z,6.00
2023-04-13T03:56:26.913Z,6.10
2023-04-13T03:58:29.685Z,6.10
2023-04-13T04:00:32.490Z,6.10
2023-04-13T04:02:35.436Z,6.10
2023-04-13T04:04:38.407Z,6.10
2023-04-13T04:06:41.203Z,6.10
2023-04-13T04:08:45.380Z,6.20
2023-04-13T04:10:48.247Z,6.20
2023-04-13T04:12:52.546Z,6.20
2023-04-13T04:14:55.471Z,6.20
2023-04-13T04:16:58.272Z,6.20
2023-04-13T04:19:01.037Z,6.20
2023-04-13T04:21:03.862Z,6.20
2023-04-13T04:23:09.886Z,6.20
2023-04-13T04:25:12.678Z,6.20
2023-04-13T04:27:15.469Z,6.20
2023-04-13T04:29:22.082Z,6.20
2023-04-13T04:31:25.150Z,6.20
2023-04-13T04:33:27.993Z,6.20
2023-04-13T04:35:34.103Z,6.20
2023-04-13T04:37:38.846Z,6.20
2023-04-13T04:39:44.563Z,6.20
2023-04-13T04:41:47.309Z,6.30
2023-04-13T04:43:50.264Z,6.30
2023-04-13T04:45:57.743Z,6.30
2023-04-13T04:48:00.747Z,6.30
2023-04-13T04:50:03.517Z,6.30
2023-04-13T04:52:06.411Z,6.30
2023-04-13T04:54:09.136Z,6.30
2023-04-13T04:56:11.876Z,6.30
2023-04-13T04:58:14.665Z,6.30
2023-04-13T05:00:18.305Z,6.30
2023-04-13T05:02:23.449Z,6.30
2023-04-13T05:04:26.295Z,6.40
2023-04-13T05:06:32.542Z,6.40
2023-04-13T05:08:35.975Z,6.40
2023-04-13T05:10:45.140Z,6.40
2023-04-13T05:12:48.320Z,6.40
2023-04-13T05:14:51.260Z,6.50
2023-04-13T05:16:54.518Z,6.50
2023-04-13T05:18:59.030Z,6.50
2023-04-13T05:21:02.150Z,6.50
2023-04-13T05:23:04.935Z,6.50
2023-04-13T05:25:09.400Z,6.50
2023-04-13T05:27:13.443Z,6.50
2023-04-13T05:29:16.229Z,6.60
2023-04-13T05:31:19.084Z,6.60
2023-04-13T05:33:21.873Z,6.60
2023-04-13T05:35:28.006Z,6.60
2023-04-13T05:37:31.046Z,6.70
2023-04-13T05:39:33.813Z,6.70
2023-04-13T05:41:37.217Z,6.80
2023-04-13T05:43:39.964Z,6.90
2023-04-13T05:45:43.263Z,7.10
2023-04-13T05:47:46.179Z,7.20
2023-04-13T05:49:49.002Z,7.30
2023-04-13T05:51:54.717Z,7.30
2023-04-13T05:53:57.522Z,7.20
2023-04-13T05:56:00.379Z,7.10
2023-04-13T05:58:03.771Z,7.10
2023-04-13T06:00:10.261Z,7.10
2023-04-13T06:02:13.158Z,7.10
2023-04-13T06:04:16.220Z,7.10
2023-04-13T06:06:21.038Z,7.10
2023-04-13T06:08:32.371Z,7.00
2023-04-13T06:10:35.193Z,7.10
2023-04-13T06:12:37.972Z,7.10
2023-04-13T06:14:42.060Z,7.10
2023-04-13T06:16:44.888Z,7.10
2023-04-13T06:18:47.812Z,7.10
2023-04-13T06:20:50.635Z,7.10
2023-04-13T06:22:53.428Z,7.10
2023-04-13T06:24:57.530Z,7.20
2023-04-13T06:27:00.515Z,7.30
2023-04-13T06:29:03.543Z,7.30
2023-04-13T06:31:07.486Z,7.30
2023-04-13T06:33:11.124Z,7.30
2023-04-13T06:35:14.675Z,7.30
2023-04-13T06:37:17.833Z,7.30
2023-04-13T06:39:20.609Z,7.30
2023-04-13T06:41:24.759Z,7.40
2023-04-13T06:43:29.811Z,7.50
2023-04-13T06:45:33.768Z,7.70
2023-04-13T06:47:37.295Z,7.70
2023-04-13T06:49:40.129Z,7.70
2023-04-13T06:51:42.933Z,7.70
2023-04-13T06:53:45.708Z,7.70
2023-04-13T06:55:48.499Z,7.70
2023-04-13T06:57:52.619Z,7.70
2023-04-13T06:59:55.557Z,7.80
2023-04-13T07:01:58.480Z,8.00
2023-04-13T07:04:02.514Z,8.20
2023-04-13T07:06:06.154Z,8.30
2023-04-13T07:08:08.913Z,8.20
2023-04-13T07:10:12.007Z,8.30
2023-04-13T07:12:14.772Z,8.40
2023-04-13T07:14:18.874Z,8.40
2023-04-13T07:16:21.753Z,8.30
2023-04-13T07:18:24.642Z,8.30
2023-04-13T07:20:27.508Z,8.30
2023-04-13T07:22:32.508Z,8.30
2023-04-13T07:24:35.912Z,8.30
2023-04-13T07:26:40.954Z,8.20
2023-04-13T07:28:43.736Z,8.30
2023-04-13T07:30:48.231Z,8.30
2023-04-13T07:32:51.077Z,8.30
2023-04-13T07:34:53.901Z,8.30
2023-04-13T07:36:56.663Z,8.30
2023-04-13T07:38:59.588Z,8.30
2023-04-13T07:41:02.538Z,8.30
2023-04-13T07:43:05.339Z,8.40
2023-04-13T07:45:10.713Z,8.40
2023-04-13T07:47:14.830Z,8.50
2023-04-13T07:49:17.599Z,8.50
2023-04-13T07:51:20.397Z,8.60
2023-04-13T07:53:23.162Z,8.60
2023-04-13T07:55:25.953Z,8.60
2023-04-13T07:57:28.726Z,8.60
2023-04-13T07:59:31.596Z,8.70
2023-04-13T08:01:34.959Z,8.60
2023-04-13T08:03:39.348Z,8.70
2023-04-13T08:05:43.449Z,8.60
2023-04-13T08:07:49.004Z,8.50
2023-04-13T08:09:52.736Z,8.50
2023-04-13T08:11:55.532Z,8.40
2023-04-13T08:13:58.311Z,8.40
2023-04-13T08:16:01.362Z,8.30
2023-04-13T08:18:04.367Z,8.30
2023-04-13T08:20:10.191Z,8.30
2023-04-13T08:22:12.991Z,8.30
2023-04-13T08:24:15.765Z,8.20
2023-04-13T08:26:19.171Z,8.30
2023-04-13T08:28:23.007Z,8.30
2023-04-13T08:30:25.811Z,8.30
2023-04-13T08:32:28.672Z,8.30
2023-04-13T08:34:31.637Z,8.30
2023-04-13T08:36:36.188Z,8.20
2023-04-13T08:38:38.978Z,8.30
2023-04-13T08:40:41.780Z,8.30
2023-04-13T08:42:44.636Z,8.30
2023-04-13T08:44:47.432Z,8.40
2023-04-13T08:46:52.085Z,8.40
2023-04-13T08:48:56.603Z,8.50
2023-04-13T08:50:59.418Z,8.70
2023-04-13T08:53:03.996Z,8.70
2023-04-13T08:55:07.109Z,8.80
2023-04-13T08:57:10.483Z,8.70
2023-04-13T08:59:13.335Z,8.90
2023-04-13T09:01:16.349Z,8.90
2023-04-13T09:03:22.459Z,8.90
2023-04-13T09:05:26.486Z,9.00
2023-04-13T09:07:30.805Z,9.00
2023-04-13T09:09:35.143Z,9.00
2023-04-13T09:11:38.081Z,8.90
2023-04-13T09:13:41.356Z,8.90
2023-04-13T09:15:47.280Z,8.80
2023-04-13T09:17:50.527Z,8.80
2023-04-13T09:19:53.381Z,8.70
2023-04-13T09:21:56.142Z,8.70
2023-04-13T09:23:59.708Z,8.60
2023-04-13T09:26:08.035Z,8.60
2023-04-13T09:28:17.245Z,8.50
2023-04-13T09:30:21.693Z,8.60
2023-04-13T09:32:25.206Z,8.60
2023-04-13T09:34:28.363Z,8.70
2023-04-13T09:36:32.506Z,8.70
2023-04-13T09:38:35.270Z,9.40
2023-04-13T09:40:39.000Z,9.30
2023-04-13T09:42:44.043Z,9.30
2023-04-13T09:44:56.854Z,9.40
2023-04-13T09:46:59.852Z,10.70
2023-04-13T09:49:03.360Z,11.60
2023-04-13T09:51:08.536Z,12.10
2023-04-13T09:53:11.497Z,12.40
2023-04-13T09:55:17.877Z,12.90
2023-04-13T09:57:27.043Z,12.90
2023-04-13T09:59:31.185Z,13.20
2023-04-13T10:01:34.422Z,13.60
2023-04-13T10:03:37.808Z,13.80
2023-04-13T10:05:55.304Z,13.50
2023-04-13T10:08:02.644Z,13.80
2023-04-13T10:10:06.617Z,14.30
2023-04-13T10:12:10.860Z,14.30
2023-04-13T10:14:15.967Z,14.40
2023-04-13T10:17:04.830Z,14.20
2023-04-13T10:19:11.016Z,13.30
2023-04-13T10:21:13.872Z,12.30
2023-04-13T10:23:16.983Z,12.10
2023-04-13T10:25:32.030Z,11.90
2023-04-13T10:27:36.846Z,11.80
2023-04-13T10:29:39.627Z,12.40
2023-04-13T10:31:46.843Z,12.20
2023-04-13T10:33:50.038Z,12.20
2023-04-13T10:35:56.782Z,12.80
2023-04-13T10:37:59.599Z,14.10
2023-04-13T10:40:05.739Z,13.30
2023-04-13T10:42:09.247Z,12.80
2023-04-13T10:44:12.042Z,12.50
2023-04-13T10:46:14.851Z,12.30
2023-04-13T10:48:22.263Z,12.30
2023-04-13T10:50:27.500Z,12.10
2023-04-13T10:52:31.577Z,13.30
2023-04-13T10:54:35.416Z,12.90
2023-04-13T10:56:38.246Z,12.50
2023-04-13T10:58:41.044Z,12.10
2023-04-13T11:00:46.937Z,12.10
2023-04-13T11:02:51.259Z,12.90
2023-04-13T11:04:55.869Z,12.70
2023-04-13T11:06:59.141Z,12.60
2023-04-13T11:09:02.667Z,12.30
2023-04-13T11:11:06.008Z,12.40
2023-04-13T11:13:08.787Z,12.20
2023-04-13T11:15:12.687Z,12.10
2023-04-13T11:17:16.722Z,11.80
2023-04-13T11:19:19.662Z,11.80
2023-04-13T11:21:25.151Z,11.70
2023-04-13T11:23:28.225Z,11.80
2023-04-13T11:25:31.150Z,12.10
2023-04-13T11:27:33.947Z,12.80
2023-04-13T11:29:36.721Z,12.90
2023-04-13T11:31:39.933Z,12.80
2023-04-13T11:33:44.481Z,13.40
2023-04-13T11:35:50.374Z,13.10
2023-04-13T11:37:56.472Z,14.20
2023-04-13T11:40:03.171Z,14.30
2023-04-13T11:42:07.375Z,14.50
2023-04-13T11:44:12.382Z,14.10
2023-04-13T11:46:16.210Z,14.30
2023-04-13T11:48:19.205Z,13.30
2023-04-13T11:50:22.447Z,13.30
2023-04-13T11:52:25.198Z,13.40
2023-04-13T11:54:29.933Z,13.10
2023-04-13T11:56:32.753Z,12.50
2023-04-13T11:58:35.717Z,12.20
2023-04-13T12:00:39.206Z,12.20
2023-04-13T12:02:57.509Z,12.50
2023-04-13T12:05:04.935Z,12.50
2023-04-13T12:07:12.737Z,12.50
2023-04-13T12:09:17.867Z,12.30
2023-04-13T12:11:41.428Z,12.10
2023-04-13T12:13:56.545Z,12.40
2023-04-13T12:16:16.324Z,12.60
2023-04-13T12:18:26.068Z,12.70
2023-04-13T12:20:38.925Z,13.90
2023-04-13T12:22:52.261Z,14.40
2023-04-13T12:24:59.846Z,14.70
2023-04-13T12:29:11.196Z,15.00
2023-04-13T12:31:14.030Z,15.10
2023-04-13T12:33:16.874Z,15.20
2023-04-13T12:35:20.309Z,15.00
2023-04-13T12:37:23.071Z,15.80
2023-04-13T12:39:26.359Z,15.20
2023-04-13T12:41:30.207Z,15.80
2023-04-13T12:43:34.311Z,16.10
2023-04-13T12:45:37.360Z,16.40
2023-04-13T12:47:40.817Z,15.20
2023-04-13T12:49:43.618Z,14.20
2023-04-13T12:51:46.404Z,14.00
2023-04-13T12:53:49.190Z,14.50
2023-04-13T12:55:52.047Z,14.40
2023-04-13T12:57:54.831Z,14.10
2023-04-13T12:59:58.948Z,14.50
2023-04-13T13:02:01.864Z,14.50
2023-04-13T13:04:05.249Z,14.10
2023-04-13T13:06:08.528Z,13.90
2023-04-13T13:08:11.514Z,13.90
2023-04-13T13:10:29.126Z,14.90
2023-04-13T13:12:32.656Z,15.20
2023-04-13T13:14:35.428Z,14.50
2023-04-13T13:16:39.579Z,14.40
2023-04-13T13:18:50.422Z,15.00
2023-04-13T13:20:54.343Z,14.30
2023-04-13T13:22:57.313Z,13.60
2023-04-13T13:25:00.487Z,13.40
2023-04-13T13:27:34.229Z,13.50
2023-04-13T13:29:27.987Z,14.20
2023-04-13T13:31:31.024Z,14.00
2023-04-13T13:33:35.246Z,13.70
2023-04-13T13:35:38.034Z,14.00
2023-04-13T13:37:40.872Z,14.10
2023-04-13T13:39:43.647Z,13.80
2023-04-13T13:41:46.466Z,13.50
2023-04-13T13:43:49.239Z,13.20
2023-04-13T13:45:52.046Z,13.20
2023-04-13T13:47:55.174Z,13.30
2023-04-13T13:49:59.322Z,13.30
2023-04-13T13:52:02.136Z,13.10
2023-04-13T13:54:05.161Z,13.10
2023-04-13T13:56:08.046Z,13.10
2023-04-13T13:58:10.821Z,13.20
2023-04-13T14:00:17.012Z,13.10
2023-04-13T14:02:20.500Z,13.20
2023-04-13T14:04:23.404Z,14.10
2023-04-13T14:06:27.727Z,14.30
2023-04-13T14:08:30.552Z,14.20
2023-04-13T14:10:34.245Z,14.10
2023-04-13T14:12:39.358Z,13.90
2023-04-13T14:14:42.123Z,13.70
2023-04-13T14:16:44.955Z,13.80
2023-04-13T14:18:49.067Z,13.50
2023-04-13T14:20:52.088Z,13.40
2023-04-13T14:22:56.246Z,13.10
2023-04-13T14:25:00.074Z,13.00
2023-04-13T14:27:02.858Z,13.00
2023-04-13T14:29:05.625Z,12.80
2023-04-13T14:31:08.461Z,12.60
2023-04-13T14:33:13.626Z,12.60
2023-04-13T14:35:16.756Z,12.70
2023-04-13T14:37:19.586Z,12.70
2023-04-13T14:39:25.909Z,12.70
2023-04-13T14:41:28.707Z,12.60
2023-04-13T14:43:31.638Z,12.60
2023-04-13T14:45:34.458Z,12.50
2023-04-13T14:47:37.310Z,12.60
2023-04-13T14:49:40.128Z,12.60
2023-04-13T14:51:42.920Z,12.70
2023-04-13T14:53:46.151Z,12.90
2023-04-13T14:55:50.390Z,13.30
2023-04-13T14:57:53.907Z,14.10
2023-04-13T14:59:56.768Z,14.70
2023-04-13T15:02:00.887Z,14.80
2023-04-13T15:04:03.947Z,15.00
2023-04-13T15:06:08.328Z,15.20
2023-04-13T15:08:11.898Z,15.30
2023-04-13T15:10:14.745Z,15.30
2023-04-13T15:12:18.883Z,15.20
2023-04-13T15:14:21.841Z,15.40
2023-04-13T15:16:24.715Z,15.30
2023-04-13T15:18:27.492Z,14.90
2023-04-13T15:20:30.584Z,14.30
2023-04-13T15:22:35.757Z,14.00
2023-04-13T15:24:38.558Z,13.80
2023-04-13T15:26:42.097Z,13.80
2023-04-13T15:28:46.200Z,13.50
2023-04-13T15:30:48.973Z,13.40
2023-04-13T15:32:51.778Z,13.30
2023-04-13T15:34:56.234Z,13.10
2023-04-13T15:36:59.400Z,13.00
2023-04-13T15:39:02.454Z,12.80
2023-04-13T15:41:05.609Z,12.60
2023-04-13T15:43:08.665Z,12.60
2023-04-13T15:45:13.442Z,12.60
2023-04-13T15:47:16.225Z,12.60
2023-04-13T15:49:19.006Z,12.60
2023-04-13T15:51:21.824Z,12.50
2023-04-13T15:53:25.777Z,12.50
2023-04-13T15:55:29.650Z,12.20
2023-04-13T15:57:32.726Z,12.10
2023-04-13T15:59:35.533Z,12.10
2023-04-13T16:01:49.747Z,12.00
2023-04-13T16:03:52.987Z,12.00
2023-04-13T16:05:56.017Z,11.90
2023-04-13T16:07:58.794Z,11.90
2023-04-13T16:10:01.964Z,11.80
2023-04-13T16:12:09.027Z,11.70
2023-04-13T16:14:11.869Z,11.60
2023-04-13T16:16:14.936Z,11.50
2023-04-13T16:18:19.552Z,11.50
2023-04-13T16:20:22.341Z,11.40
2023-04-13T16:22:25.156Z,11.30
2023-04-13T16:24:28.636Z,11.30
2023-04-13T16:26:31.476Z,11.20
2023-04-13T16:28:34.566Z,11.20
2023-04-13T16:30:37.605Z,11.10
2023-04-13T16:32:43.062Z,11.10
2023-04-13T16:34:47.402Z,11.10
2023-04-13T16:36:50.224Z,11.00
2023-04-13T16:38:53.884Z,11.00
2023-04-13T16:40:56.667Z,10.90
2023-04-13T16:42:59.898Z,10.90
2023-04-13T16:45:02.904Z,10.90
2023-04-13T16:47:05.917Z,10.90
2023-04-13T16:49:08.674Z,10.90
2023-04-13T16:51:12.816Z,10.90
2023-04-13T16:53:17.399Z,10.80
2023-04-13T16:55:20.394Z,10.80
2023-04-13T16:57:23.162Z,10.80
2023-04-13T16:59:26.023Z,10.80
2023-04-13T17:01:30.192Z,10.80
2023-04-13T17:03:33.222Z,10.80
2023-04-13T17:05:36.088Z,10.80
2023-04-13T17:07:40.851Z,10.80
2023-04-13T17:09:43.626Z,10.80
2023-04-13T17:11:46.412Z,10.80
2023-04-13T17:13:49.199Z,10.80
2023-04-13T17:15:52.019Z,10.80
2023-04-13T17:17:54.872Z,10.90
2023-04-13T17:19:57.776Z,10.80
2023-04-13T17:22:00.703Z,10.90
2023-04-13T17:24:05.680Z,10.90
2023-04-13T17:26:08.497Z,10.90
2023-04-13T17:28:11.441Z,10.90
2023-04-13T17:30:14.596Z,10.90
2023-04-13T17:32:19.581Z,10.80
2023-04-13T17:34:22.781Z,10.70
2023-04-13T17:36:26.783Z,10.70
2023-04-13T17:38:29.589Z,10.70
2023-04-13T17:40:33.725Z,10.70
2023-04-13T17:42:36.618Z,10.80
2023-04-13T17:44:39.380Z,10.80
2023-04-13T17:46:42.164Z,10.70
2023-04-13T17:48:45.276Z,10.70
2023-04-13T17:50:48.216Z,10.70
2023-04-13T17:52:51.149Z,10.70
2023-04-13T17:54:53.929Z,10.70
2023-04-13T17:56:58.069Z,10.70
2023-04-13T17:59:01.459Z,10.70
2023-04-13T18:01:08.063Z,10.70
2023-04-13T18:03:11.733Z,10.70
2023-04-13T18:05:15.733Z,10.60
2023-04-13T18:07:18.544Z,10.60
2023-04-13T18:09:22.479Z,10.60
2023-04-13T18:11:25.928Z,10.50
2023-04-13T18:13:31.329Z,10.50
2023-04-13T18:15:34.303Z,10.40
2023-04-13T18:17:37.729Z,10.40
2023-04-13T18:19:40.518Z,10.30
2023-04-13T18:21:43.708Z,10.30
2023-04-13T18:23:46.719Z,10.20
2023-04-13T18:25:49.700Z,10.20
2023-04-13T18:27:52.490Z,10.10
2023-04-13T18:29:56.861Z,10.10
2023-04-13T18:31:59.637Z,10.00
2023-04-13T18:34:02.474Z,10.00
2023-04-13T18:36:05.812Z,10.00
2023-04-13T18:38:08.612Z,9.90
2023-04-13T18:40:12.170Z,9.80
2023-04-13T18:42:14.985Z,9.80
2023-04-13T18:44:17.750Z,9.80
2023-04-13T18:46:21.934Z,9.70
2023-04-13T18:48:24.768Z,9.70
2023-04-13T18:50:27.675Z,9.70
2023-04-13T18:52:30.472Z,9.70
2023-04-13T18:54:34.319Z,9.70
2023-04-13T18:56:37.152Z,9.60
2023-04-13T18:58:39.914Z,9.50
2023-04-13T19:00:42.664Z,9.50
2023-04-13T19:02:48.437Z,9.50
2023-04-13T19:04:51.592Z,9.50
2023-04-13T19:06:54.394Z,9.50
2023-04-13T19:08:57.153Z,9.40
2023-04-13T19:10:59.910Z,9.40
2023-04-13T19:13:02.698Z,9.40
2023-04-13T19:15:06.396Z,9.40
2023-04-13T19:17:09.216Z,9.40
2023-04-13T19:19:14.908Z,9.40
2023-04-13T19:21:18.538Z,9.40
2023-04-13T19:23:21.323Z,9.40
2023-04-13T19:25:24.097Z,9.40
2023-04-13T19:27:28.805Z,9.30
2023-04-13T19:29:33.377Z,9.30
2023-04-13T19:31:37.835Z,9.30
2023-04-13T19:33:40.724Z,9.20
2023-04-13T19:35:44.848Z,9.20
2023-04-13T19:37:47.649Z,9.20
2023-04-13T19:39:50.425Z,9.10
2023-04-13T19:41:53.991Z,9.10
2023-04-13T19:43:57.447Z,9.10
2023-04-13T19:46:00.456Z,9.00
2023-04-13T19:48:03.327Z,9.00
2023-04-13T19:50:07.545Z,9.00
2023-04-13T19:52:16.197Z,8.90
2023-04-13T19:54:18.989Z,8.80
2023-04-13T19:56:23.366Z,8.70
2023-04-13T19:58:26.638Z,8.70
2023-04-13T20:00:29.883Z,8.50
2023-04-13T20:02:32.756Z,8.40
2023-04-13T20:04:35.802Z,8.30
2023-04-13T20:06:38.677Z,8.30
2023-04-13T20:08:43.811Z,8.20
2023-04-13T20:10:46.645Z,8.10
2023-04-13T20:12:49.484Z,8.00
2023-04-13T20:14:52.244Z,8.00
2023-04-13T20:16:55.042Z,7.90
2023-04-13T20:18:57.907Z,7.80
2023-04-13T20:21:01.380Z,7.90
2023-04-13T20:23:04.996Z,7.80
2023-04-13T20:25:10.985Z,7.80
2023-04-13T20:27:13.804Z,7.80
2023-04-13T20:29:21.690Z,7.80
2023-04-13T20:31:25.430Z,7.80
2023-04-13T20:33:28.222Z,7.60
2023-04-13T20:35:32.370Z,7.60
2023-04-13T20:37:35.187Z,7.50
2023-04-13T20:39:52.516Z,7.40
2023-04-13T20:41:57.033Z,7.50
2023-04-13T20:44:00.205Z,7.40
2023-04-13T20:46:03.305Z,7.40
2023-04-13T20:50:13.147Z,7.10
2023-04-13T20:52:18.067Z,7.10
2023-04-13T20:54:21.467Z,6.90
2023-04-13T20:56:24.698Z,6.90
2023-04-13T20:58:29.637Z,6.90
2023-04-13T21:00:32.552Z,6.80
2023-04-13T21:02:35.453Z,6.80
2023-04-13T21:04:38.356Z,6.80
2023-04-13T21:06:41.168Z,6.70
2023-04-13T21:08:44.025Z,6.70
2023-04-13T21:10:46.830Z,6.70
2023-04-13T21:12:49.613Z,6.70
2023-04-13T21:14:53.736Z,6.70
2023-04-13T21:16:56.586Z,6.70
2023-04-13T21:18:59.406Z,6.70
2023-04-13T21:21:02.203Z,6.70
2023-04-13T21:23:04.969Z,6.80
2023-04-13T21:25:08.292Z,6.80
2023-04-13T21:27:11.092Z,6.80
2023-04-13T21:29:16.259Z,6.80
2023-04-13T21:31:20.466Z,6.80
2023-04-13T21:33:23.595Z,6.90
2023-04-13T21:35:26.471Z,6.90
2023-04-13T21:37:29.666Z,6.90
2023-04-13T21:39:32.475Z,6.90
2023-04-13T21:41:35.322Z,6.70
2023-04-13T21:43:38.079Z,6.60
2023-04-13T21:45:40.888Z,6.60
2023-04-13T21:47:46.980Z,6.60
2023-04-13T21:49:49.821Z,6.50
2023-04-13T21:51:52.619Z,6.50
2023-04-13T21:53:56.095Z,6.50
2023-04-13T21:55:58.885Z,6.50
2023-04-13T21:58:01.655Z,6.50
2023-04-13T22:00:06.315Z,6.50
2023-04-13T22:02:09.813Z,6.50
2023-04-13T22:04:14.143Z,6.60
2023-04-13T22:06:17.076Z,6.60
2023-04-13T22:08:19.848Z,6.60
2023-04-13T22:10:22.824Z,6.60
2023-04-13T22:12:25.719Z,6.60
2023-04-13T22:14:28.496Z,6.50
2023-04-13T22:16:31.272Z,6.40
2023-04-13T22:18:34.040Z,6.30
2023-04-13T22:20:38.139Z,6.20
2023-04-13T22:22:40.910Z,6.20
2023-04-13T22:24:43.666Z,6.10
2023-04-13T22:26:46.797Z,6.10
2023-04-13T22:28:49.549Z,6.10
2023-04-13T22:30:52.781Z,6.00
2023-04-13T22:32:55.644Z,6.00
2023-04-13T22:34:58.940Z,6.00
2023-04-13T22:37:04.787Z,5.80
2023-04-13T22:39:07.568Z,5.80
2023-04-13T22:41:10.377Z,5.60
2023-04-13T22:43:13.123Z,5.70
2023-04-13T22:45:15.882Z,5.70
2023-04-13T22:47:18.663Z,5.70
2023-04-13T22:49:21.870Z,5.70
2023-04-13T22:51:24.665Z,5.70
2023-04-13T22:53:29.101Z,5.70
2023-04-13T22:55:31.966Z,5.70
2023-04-13T22:57:35.217Z,5.70
2023-04-13T22:59:38.010Z,5.70
2023-04-13T23:01:40.923Z,5.50
2023-04-13T23:03:43.949Z,5.40
2023-04-13T23:05:46.811Z,5.40
2023-04-13T23:07:50.433Z,5.30
2023-04-13T23:09:54.543Z,5.30
2023-04-13T23:11:57.372Z,5.30
2023-04-13T23:14:00.590Z,5.30
2023-04-13T23:16:03.490Z,5.30
2023-04-13T23:18:06.380Z,5.30
2023-04-13T23:20:10.595Z,5.30
2023-04-13T23:22:13.387Z,5.30
2023-04-13T23:24:16.148Z,5.20
2023-04-13T23:26:20.605Z,5.20
2023-04-13T23:28:23.384Z,5.20
2023-04-13T23:30:26.186Z,5.20
2023-04-13T23:32:29.000Z,5.20
2023-04-13T23:34:31.764Z,5.20
2023-04-13T23:36:34.557Z,5.20
2023-04-13T23:38:37.324Z,5.20
2023-04-13T23:40:40.105Z,5.20
2023-04-13T23:42:44.185Z,5.20
2023-04-13T23:44:47.292Z,5.10
2023-04-13T23:46:50.459Z,5.10
2023-04-13T23:48:53.210Z,5.00
2023-04-13T23:50:57.248Z,5.00
2023-04-13T23:53:00.758Z,4.90
2023-04-13T23:55:03.538Z,4.90
2023-04-13T23:57:06.501Z,4.80
2023-04-13T23:59:10.656Z,4.80
